Time;durP1;ratioP1;P1;durP2;ratioP2;P2;SDS_P1;SDS_P2;PMS_P1;PMS_P2;Temp;Humidity;BMP_temperature;BMP_pressure;BME280_temperature;BME280_humidity;BME280_pressure;Samples;Min_cycle;Max_cycle;Signal;HPM_P1;HPM_P2
2023/03/07 00:13:15;;;;;;;41.10;17.20;;;;;;;0.45;68.53;98978.09;682800;1262;138673;-80
2023/03/07 00:28:18;;;;;;;42.00;18.20;;;;;;;0.25;68.59;98972.02;682760;1262;138832;-78
2023/03/07 00:43:21;;;;;;;46.70;21.40;;;;;;;0.22;68.29;98960.84;683162;1264;138918;-78
2023/03/07 00:58:30;;;;;;;40.10;18.20;;;;;;;0.16;67.91;98957.13;682632;1274;138822;-78
2023/03/07 01:13:34;;;;;;;37.00;17.40;;;;;;;-0.02;67.74;98939.91;682774;1270;138692;-77
2023/03/07 01:28:37;;;;;;;43.90;17.50;;;;;;;-0.06;68.27;98927.94;682924;1262;139187;-78
2023/03/07 01:43:41;;;;;;;39.60;17.30;;;;;;;-0.12;67.85;98918.21;682781;1259;138858;-78
2023/03/07 01:58:50;;;;;;;54.80;22.50;;;;;;;-0.29;67.86;98917.79;682839;1262;138840;-77
2023/03/07 02:13:53;;;;;;;51.90;25.70;;;;;;;-0.42;68.83;98910.36;683022;1259;139234;-78
2023/03/07 02:28:58;;;;;;;59.90;26.90;;;;;;;-0.47;70.13;98895.75;682864;1261;139575;-78
2023/03/07 02:44:01;;;;;;;55.90;24.50;;;;;;;-0.42;70.22;98892.13;682929;1261;138770;-77
2023/03/07 02:59:05;;;;;;;58.80;26.00;;;;;;;-0.32;70.13;98883.26;682849;1262;139053;-77
2023/03/07 03:14:08;;;;;;;50.40;24.10;;;;;;;-0.56;71.18;98871.05;682963;1259;138876;-80
2023/03/07 03:29:11;;;;;;;50.20;21.30;;;;;;;-0.56;71.56;98857.98;682871;1261;139004;-77
2023/03/07 03:44:15;;;;;;;63.50;26.10;;;;;;;-0.55;73.25;98855.84;682931;1261;138960;-77
2023/03/07 03:59:18;;;;;;;67.60;28.40;;;;;;;-0.42;75.07;98851.59;682759;1262;139292;-77
2023/03/07 04:14:22;;;;;;;83.60;36.30;;;;;;;-0.25;74.84;98843.80;682970;1262;138580;-77
2023/03/07 04:29:26;;;;;;;180.80;60.00;;;;;;;-0.22;75.28;98840.84;682838;1261;139072;-77
2023/03/07 04:44:36;;;;;;;84.30;38.00;;;;;;;-0.08;74.66;98826.35;682659;1260;139362;-77
2023/03/07 04:59:39;;;;;;;65.60;31.60;;;;;;;-0.18;73.78;98807.56;682650;1262;138621;-77
2023/03/07 05:14:43;;;;;;;61.70;25.60;;;;;;;-0.30;73.41;98792.41;682737;1260;138984;-77
2023/03/07 05:29:46;;;;;;;63.50;27.50;;;;;;;-0.41;73.51;98778.69;682684;1262;139200;-77
2023/03/07 05:44:50;;;;;;;55.30;23.00;;;;;;;-0.41;73.85;98747.06;682960;1258;137905;-77
2023/03/07 05:59:53;;;;;;;46.40;19.60;;;;;;;-0.38;74.32;98736.73;683007;1263;139300;-77
2023/03/07 06:14:57;;;;;;;61.20;28.10;;;;;;;-0.19;74.77;98733.59;683052;1263;139244;-77
2023/03/07 06:30:01;;;;;;;78.70;32.50;;;;;;;-0.01;76.29;98719.85;682790;1262;139028;-78
2023/03/07 06:45:05;;;;;;;93.50;38.60;;;;;;;0.31;76.74;98714.98;682993;1262;138936;-77
2023/03/07 07:00:10;;;;;;;68.00;30.20;;;;;;;0.84;76.75;98709.00;682864;1262;139488;-77
2023/03/07 07:15:14;;;;;;;73.80;33.30;;;;;;;1.07;74.62;98698.20;682951;1261;138528;-78
2023/03/07 07:30:17;;;;;;;77.00;35.40;;;;;;;1.54;74.05;98682.10;682616;1263;139041;-77
2023/03/07 07:45:21;;;;;;;47.60;22.00;;;;;;;1.80;72.64;98654.95;682880;1257;138611;-78
2023/03/07 08:00:25;;;;;;;39.60;19.70;;;;;;;1.96;71.47;98630.69;682450;1262;138954;-78
2023/03/07 08:15:29;;;;;;;55.90;28.70;;;;;;;2.58;69.98;98621.98;682621;1257;138753;-80
2023/03/07 08:30:34;;;;;;;40.40;20.20;;;;;;;2.98;67.85;98617.61;682732;1260;138482;-79
2023/03/07 08:45:39;;;;;;;64.20;25.40;;;;;;;3.66;65.93;98604.84;682858;1263;138435;-79
2023/03/07 09:00:42;;;;;;;276.60;94.80;;;;;;;3.06;64.68;98592.96;682403;1261;139576;-78
2023/03/07 09:15:45;;;;;;;78.40;38.00;;;;;;;2.81;64.76;98574.34;682435;1260;139079;-79
2023/03/07 09:30:48;;;;;;;40.60;22.40;;;;;;;2.99;65.19;98542.91;682626;1262;138485;-80
2023/03/07 09:46:03;;;;;;;57.30;25.90;;;;;;;3.26;65.65;98533.70;682607;1260;138447;-79
2023/03/07 10:01:11;;;;;;;57.20;27.60;;;;;;;3.23;67.19;98489.63;682505;1258;139672;-79
2023/03/07 10:16:35;;;;;;;221.50;83.20;;;;;;;3.24;69.17;98465.66;682750;1262;139379;-80
2023/03/07 10:31:43;;;;;;;73.30;32.10;;;;;;;3.54;70.18;98436.25;683010;1259;138633;-79
2023/03/07 10:46:53;;;;;;;62.20;29.50;;;;;;;3.62;71.85;98403.99;682494;1262;138599;-79
2023/03/07 11:02:00;;;;;;;97.60;44.00;;;;;;;3.57;73.08;98377.27;682795;1262;138804;-80
2023/03/07 11:17:19;;;;;;;94.60;36.50;;;;;;;3.50;75.30;98354.34;682879;1258;138694;-80
2023/03/07 11:32:23;;;;;;;155.90;59.20;;;;;;;3.13;81.08;98337.77;683011;1259;139137;-83
2023/03/07 11:47:37;;;;;;;202.50;80.10;;;;;;;3.23;84.41;98310.97;682816;1262;139129;-81
2023/03/07 12:03:14;;;;;;;115.20;48.00;;;;;;;3.53;85.59;98279.77;682943;1257;139013;-83
2023/03/07 12:18:31;;;;;;;159.80;62.00;;;;;;;3.69;86.39;98239.98;682859;1260;139504;-81
2023/03/07 12:33:53;;;;;;;99.40;39.80;;;;;;;3.94;85.72;98211.92;682811;1261;138896;-81
2023/03/07 12:49:08;;;;;;;137.70;58.70;;;;;;;3.84;87.79;98197.11;682679;1262;138541;-79
2023/03/07 13:04:33;;;;;;;101.00;42.30;;;;;;;3.99;89.14;98192.73;682484;1260;139642;-81
2023/03/07 13:19:38;;;;;;;90.50;36.60;;;;;;;4.24;89.29;98185.36;682976;1262;138658;-82
2023/03/07 13:34:48;;;;;;;87.40;37.10;;;;;;;4.51;88.79;98172.57;682967;1262;138744;-82
2023/03/07 13:49:51;;;;;;;89.80;39.10;;;;;;;4.67;88.52;98163.95;682899;1264;138306;-81
2023/03/07 14:04:57;;;;;;;76.00;33.00;;;;;;;4.74;89.86;98149.21;682751;1263;138558;-86
2023/03/07 14:20:23;;;;;;;73.30;33.40;;;;;;;4.86;92.22;98130.42;682680;1275;138560;-87
2023/03/07 14:35:40;;;;;;;64.30;31.10;;;;;;;4.76;93.81;98114.21;682800;1259;139300;-89
2023/03/07 14:50:43;;;;;;;55.70;27.70;;;;;;;4.86;94.83;98103.20;682907;1258;138640;-89
2023/03/07 15:06:12;;;;;;;58.00;28.10;;;;;;;4.69;96.11;98089.95;682772;1259;138503;-92
2023/03/07 15:21:20;;;;;;;59.80;28.90;;;;;;;4.73;95.97;98072.95;683399;1262;138823;-95
2023/03/07 15:42:53;;;;;;;48.00;24.20;;;;;;;4.72;97.60;98058.38;659459;1298;564132;-93
2023/03/07 15:58:13;;;;;;;58.00;25.00;;;;;;;4.70;97.76;98041.27;671638;1273;137616;-91
2023/03/07 16:13:20;;;;;;;54.30;25.30;;;;;;;4.63;98.46;98027.73;673668;1272;136601;-95
2023/03/07 16:28:27;;;;;;;53.50;27.10;;;;;;;4.69;97.94;98009.00;671884;1272;137886;-93
2023/03/07 16:43:37;;;;;;;61.30;30.80;;;;;;;4.54;99.23;97988.42;669554;1275;138297;-91
2023/03/07 16:58:41;;;;;;;104.10;41.10;;;;;;;4.66;99.15;97973.73;671840;1264;138410;-89
2023/03/07 17:13:48;;;;;;;60.80;28.70;;;;;;;4.58;98.67;97961.02;670351;1262;138334;-91
2023/03/07 17:28:52;;;;;;;113.90;40.60;;;;;;;4.42;97.93;97953.59;671444;1264;138805;-90
2023/03/07 17:43:56;;;;;;;682.40;180.80;;;;;;;4.41;97.93;97933.34;670966;1260;138838;-90
2023/03/07 17:59:00;;;;;;;86.80;34.30;;;;;;;4.49;98.58;97907.40;672244;1262;138586;-89
2023/03/07 18:14:03;;;;;;;106.10;43.80;;;;;;;4.54;99.94;97896.86;670430;1266;138526;-88
2023/03/07 18:29:07;;;;;;;50.60;24.70;;;;;;;4.81;100.00;97874.08;670626;1265;139489;-86
2023/03/07 18:44:11;;;;;;;54.40;25.40;;;;;;;5.03;99.95;97896.11;669828;1266;138801;-83
2023/03/07 18:59:16;;;;;;;96.00;35.00;;;;;;;4.75;97.52;97990.66;669747;1264;138803;-83
2023/03/07 19:14:19;;;;;;;53.60;22.10;;;;;;;3.93;96.95;98011.48;670723;1262;139118;-82
2023/03/07 19:29:23;;;;;;;16.50;7.00;;;;;;;3.70;97.51;98025.15;671848;1262;141532;-87
2023/03/07 19:44:26;;;;;;;4.80;3.00;;;;;;;3.82;96.88;98003.27;670347;1264;138582;-87
2023/03/07 20:02:13;;;;;;;33.40;11.80;;;;;;;4.01;93.11;97945.75;653374;1300;545503;-86
2023/03/07 20:17:17;;;;;;;15.00;6.30;;;;;;;4.07;91.42;97994.03;669166;1275;138668;-88
2023/03/07 20:32:21;;;;;;;14.30;5.70;;;;;;;3.98;90.52;98005.52;668054;1272;138073;-87
2023/03/07 20:47:25;;;;;;;9.10;4.90;;;;;;;3.98;90.29;98012.05;668357;1274;138009;-86
2023/03/07 21:02:28;;;;;;;9.80;5.30;;;;;;;3.80;90.57;98025.42;668114;1272;138475;-87
2023/03/07 21:17:33;;;;;;;15.80;7.20;;;;;;;3.86;91.13;98039.19;667926;1272;137693;-88
2023/03/07 21:32:37;;;;;;;14.60;6.60;;;;;;;3.87;91.17;98040.61;669997;1262;137435;-88
2023/03/07 21:47:40;;;;;;;22.10;10.80;;;;;;;3.83;91.49;98054.13;669995;1262;138211;-87
2023/03/07 22:02:44;;;;;;;14.30;9.00;;;;;;;3.91;91.40;98068.99;670531;1263;138526;-89
2023/03/07 22:17:47;;;;;;;22.90;9.90;;;;;;;3.88;91.84;98074.21;670831;1262;137998;-87
2023/03/07 22:32:50;;;;;;;19.70;10.60;;;;;;;3.80;91.68;98090.44;670515;1262;138558;-88
2023/03/07 22:47:54;;;;;;;22.30;9.50;;;;;;;3.87;91.67;98091.81;669705;1262;138792;-88
2023/03/07 23:03:00;;;;;;;19.20;9.90;;;;;;;3.82;91.40;98098.73;670261;1265;138479;-88
2023/03/07 23:18:07;;;;;;;18.50;8.40;;;;;;;3.74;90.95;98103.60;669265;1273;138412;-89
2023/03/07 23:33:10;;;;;;;17.20;8.50;;;;;;;3.75;90.88;98111.27;670001;1263;138674;-89
2023/03/07 23:48:14;;;;;;;25.10;10.70;;;;;;;3.78;90.43;98117.71;670537;1263;139289;-91
